Time;durP1;ratioP1;P1;durP2;ratioP2;P2;SDS_P1;SDS_P2;PMS_P1;PMS_P2;Temp;Humidity;BMP_temperature;BMP_pressure;BME280_temperature;BME280_humidity;BME280_pressure;Samples;Min_cycle;Max_cycle;Signal;HPM_P1;HPM_P2
2021/10/08 00:01:56;;;;;;;32.65;20.23;;;;;;;9.03;74.14;101623.84;2119225;82;30022;-61
2021/10/08 00:05:01;;;;;;;43.58;21.23;;;;;;;8.99;74.17;101624.81;2118987;81;28467;-61
2021/10/08 00:08:05;;;;;;;45.95;21.45;;;;;;;8.95;74.10;101622.67;2111619;83;28773;-61
2021/10/08 00:11:08;;;;;;;38.58;21.50;;;;;;;8.90;74.08;101627.23;2106122;81;31050;-61
2021/10/08 00:14:10;;;;;;;41.75;21.37;;;;;;;8.84;74.13;101628.25;2099855;82;33406;-62
2021/10/08 00:17:15;;;;;;;41.77;20.17;;;;;;;8.79;74.15;101630.13;2105869;83;29368;-61
2021/10/08 00:20:21;;;;;;;39.05;19.52;;;;;;;8.74;74.22;101628.89;2140169;82;27612;-61
2021/10/08 00:23:25;;;;;;;39.85;21.85;;;;;;;8.70;74.18;101630.33;2112209;82;28672;-61
2021/10/08 00:26:31;;;;;;;43.02;22.98;;;;;;;8.64;74.31;101635.34;2121914;82;31075;-62
2021/10/08 00:29:35;;;;;;;39.98;19.37;;;;;;;8.58;74.30;101634.11;2129866;81;32958;-61
2021/10/08 00:32:37;;;;;;;30.75;16.95;;;;;;;8.53;74.34;101634.22;2125500;81;29389;-61
2021/10/08 00:35:42;;;;;;;35.55;19.15;;;;;;;8.49;74.32;101629.40;2084332;82;27748;-61
2021/10/08 00:38:48;;;;;;;31.95;17.98;;;;;;;8.46;74.36;101636.53;2087781;83;29539;-61
2021/10/08 00:41:51;;;;;;;39.38;18.20;;;;;;;8.40;74.42;101625.52;2110963;82;31732;-61
2021/10/08 00:44:55;;;;;;;30.10;17.73;;;;;;;8.39;74.38;101634.91;2074941;83;33022;-61
2021/10/08 00:48:01;;;;;;;29.25;18.45;;;;;;;8.35;74.50;101634.09;2044719;84;30039;-61
2021/10/08 00:51:04;;;;;;;35.13;19.10;;;;;;;8.31;74.38;101645.73;2071580;84;27778;-61
2021/10/08 00:54:10;;;;;;;29.00;20.12;;;;;;;8.26;74.42;101645.82;2058717;84;28755;-61
2021/10/08 00:57:16;;;;;;;42.35;20.25;;;;;;;8.20;74.45;101646.78;2069417;83;31076;-63
2021/10/08 01:00:19;;;;;;;41.10;18.05;;;;;;;8.15;74.53;101648.68;2052040;84;32980;-61
2021/10/08 01:03:23;;;;;;;30.43;16.40;;;;;;;8.09;74.44;101658.59;2059337;84;29464;-62
2021/10/08 01:06:25;;;;;;;41.23;17.95;;;;;;;8.03;74.49;101649.77;2136165;82;27779;-64
2021/10/08 01:09:31;;;;;;;32.20;17.35;;;;;;;8.01;74.49;101654.72;2138070;80;28485;-65
2021/10/08 01:12:38;;;;;;;31.25;15.70;;;;;;;7.98;74.52;101655.62;2146026;80;31124;-61
2021/10/08 01:15:44;;;;;;;29.40;17.05;;;;;;;7.97;74.47;101658.34;2115481;81;33082;-61
2021/10/08 01:18:48;;;;;;;34.98;18.00;;;;;;;7.95;74.48;101662.34;2144393;81;29471;-62
2021/10/08 01:21:55;;;;;;;34.20;19.10;;;;;;;7.92;74.51;101665.09;2127408;80;27679;-62
2021/10/08 01:24:58;;;;;;;33.73;17.70;;;;;;;7.87;74.50;101663.80;2080764;83;28710;-60
2021/10/08 01:28:05;;;;;;;35.70;18.90;;;;;;;7.81;74.46;101665.69;2089020;83;31054;-61
2021/10/08 01:31:07;;;;;;;27.85;16.70;;;;;;;7.73;74.46;101661.38;2132526;81;33857;-61
2021/10/08 01:34:08;;;;;;;34.85;15.10;;;;;;;7.67;74.53;101658.80;2141222;81;29300;-62
2021/10/08 01:37:11;;;;;;;41.05;16.48;;;;;;;7.64;74.54;101666.84;2139759;81;28277;-61
2021/10/08 01:40:16;;;;;;;28.62;16.73;;;;;;;7.62;74.52;101667.31;2113398;82;28723;-61
2021/10/08 01:43:21;;;;;;;37.08;17.40;;;;;;;7.57;74.47;101665.19;2157200;80;31893;-62
2021/10/08 01:46:26;;;;;;;34.92;17.37;;;;;;;7.54;74.52;101673.23;2102891;82;33051;-64
2021/10/08 01:49:32;;;;;;;27.87;16.30;;;;;;;7.52;74.57;101669.70;2083284;83;29389;-62
2021/10/08 01:52:38;;;;;;;31.68;16.32;;;;;;;7.51;74.52;101670.17;2064607;84;27878;-63
2021/10/08 01:55:40;;;;;;;35.78;17.65;;;;;;;7.48;74.37;101665.30;2056144;84;29433;-61
2021/10/08 01:58:42;;;;;;;33.08;17.05;;;;;;;7.42;74.41;101668.95;2050469;84;31028;-65
2021/10/08 02:01:48;;;;;;;56.92;17.67;;;;;;;7.37;74.44;101673.02;2065260;84;33013;-61
2021/10/08 02:04:53;;;;;;;40.73;15.48;;;;;;;7.32;74.42;101671.33;2062125;84;29367;-61
2021/10/08 02:07:59;;;;;;;35.55;14.18;;;;;;;7.24;74.46;101673.63;2057919;84;27735;-60
2021/10/08 02:11:06;;;;;;;31.35;14.45;;;;;;;7.21;74.54;101676.33;2038460;85;28687;-61
2021/10/08 02:14:07;;;;;;;29.55;15.28;;;;;;;7.20;74.59;101685.23;2069247;84;31845;-66
2021/10/08 02:17:10;;;;;;;34.20;16.93;;;;;;;7.18;74.62;101675.50;2095086;83;33396;-60
2021/10/08 02:20:16;;;;;;;29.42;14.07;;;;;;;7.17;74.64;101678.63;2061769;84;29786;-60
2021/10/08 02:23:22;;;;;;;31.40;15.03;;;;;;;7.17;74.53;101687.06;2075524;83;27751;-61
2021/10/08 02:26:26;;;;;;;27.25;15.78;;;;;;;7.12;74.41;101689.33;2051957;84;29612;-61
2021/10/08 02:29:32;;;;;;;35.55;15.95;;;;;;;7.08;74.35;101690.72;2039461;85;31136;-60
2021/10/08 02:32:38;;;;;;;46.58;16.23;;;;;;;7.02;74.41;101691.69;2043010;85;32724;-64
2021/10/08 02:35:44;;;;;;;28.90;15.20;;;;;;;6.97;74.48;101701.08;2040241;83;29392;-66
2021/10/08 02:38:45;;;;;;;32.30;14.25;;;;;;;6.91;74.52;101694.95;2070730;84;27772;-65
2021/10/08 02:41:51;;;;;;;33.55;14.25;;;;;;;6.88;74.55;101694.97;2050857;83;28717;-65
2021/10/08 02:44:53;;;;;;;33.75;15.28;;;;;;;6.84;74.52;101699.47;2099044;81;31049;-62
2021/10/08 02:47:54;;;;;;;34.67;15.83;;;;;;;6.82;74.54;101690.60;2120800;81;33701;-61
2021/10/08 02:50:56;;;;;;;32.45;14.98;;;;;;;6.80;74.50;101704.38;2123655;81;29410;-62
2021/10/08 02:53:58;;;;;;;38.20;16.62;;;;;;;6.75;74.54;101704.87;2113309;82;27794;-65
2021/10/08 02:57:05;;;;;;;30.27;16.17;;;;;;;6.71;74.55;101705.80;2132859;81;28681;-62
2021/10/08 03:00:08;;;;;;;41.33;17.05;;;;;;;6.66;74.58;101704.09;2076513;83;31922;-63
2021/10/08 03:03:10;;;;;;;33.20;17.17;;;;;;;6.61;74.57;101705.91;2068652;84;33800;-61
2021/10/08 03:06:15;;;;;;;32.80;15.63;;;;;;;6.57;74.62;101707.30;2122225;81;29504;-66
2021/10/08 03:09:18;;;;;;;34.85;15.85;;;;;;;6.51;74.62;101713.57;2130240;81;27656;-66
2021/10/08 03:12:19;;;;;;;33.60;18.82;;;;;;;6.48;74.63;101709.60;2151497;81;29104;-62
2021/10/08 03:15:26;;;;;;;39.53;17.85;;;;;;;6.46;74.60;101714.92;2103406;83;31447;-62
2021/10/08 03:18:32;;;;;;;46.08;21.70;;;;;;;6.44;74.63;101719.41;2123512;81;33598;-64
2021/10/08 03:21:34;;;;;;;87.30;50.70;;;;;;;6.42;74.66;101717.63;2087144;81;29405;-62
2021/10/08 03:24:40;;;;;;;41.80;18.40;;;;;;;6.41;74.67;101728.75;2107336;81;27666;-61
2021/10/08 03:27:45;;;;;;;48.55;18.25;;;;;;;6.38;74.61;101730.97;2048913;84;28746;-64
2021/10/08 03:30:48;;;;;;;34.70;18.62;;;;;;;6.31;74.62;101723.95;2119337;81;31040;-63
2021/10/08 03:33:51;;;;;;;43.48;17.32;;;;;;;6.28;74.59;101723.11;2114309;82;33310;-64
2021/10/08 03:36:57;;;;;;;43.68;16.97;;;;;;;6.25;74.62;101726.66;2126572;81;29362;-65
2021/10/08 03:39:58;;;;;;;31.68;15.08;;;;;;;6.20;74.58;101723.17;2118986;81;27731;-62
2021/10/08 03:43:04;;;;;;;35.05;14.65;;;;;;;6.16;74.63;101720.09;2082092;84;28724;-61
2021/10/08 03:46:09;;;;;;;32.90;15.95;;;;;;;6.14;74.62;101717.42;2068913;84;31044;-61
2021/10/08 03:49:13;;;;;;;;;;;;;;;6.14;74.57;101721.87;2138148;81;32993;-63
2021/10/08 03:52:17;;;;;;;32.08;15.80;;;;;;;6.11;74.52;101720.14;2127761;80;29364;-62
2021/10/08 03:55:19;;;;;;;38.60;16.05;;;;;;;6.08;74.60;101725.02;2111390;80;28406;-61
2021/10/08 03:58:24;;;;;;;32.13;15.93;;;;;;;6.07;74.52;101720.59;2134081;81;28671;-62
2021/10/08 04:01:30;;;;;;;27.67;15.98;;;;;;;6.06;74.56;101733.91;2123599;81;31155;-63
2021/10/08 04:04:35;;;;;;;44.55;16.02;;;;;;;6.02;74.49;101729.07;2120724;81;33799;-60
2021/10/08 04:07:41;;;;;;;;;;;;;;;6.00;74.53;101733.52;2128716;81;31064;-60
2021/10/08 04:10:46;;;;;;;29.45;17.35;;;;;;;5.98;74.51;101734.38;2146557;81;27808;-60
2021/10/08 04:13:53;;;;;;;39.33;16.25;;;;;;;5.91;74.45;101737.52;2131292;82;29362;-60
2021/10/08 04:17:00;;;;;;;31.55;14.38;;;;;;;5.85;74.55;101742.44;2123421;80;31117;-61
2021/10/08 04:20:04;;;;;;;31.33;14.47;;;;;;;5.80;74.52;101744.23;2140332;81;32992;-60
2021/10/08 04:23:08;;;;;;;27.60;13.58;;;;;;;5.78;74.58;101746.05;2137681;81;29429;-60
2021/10/08 04:26:15;;;;;;;34.90;13.80;;;;;;;5.76;74.53;101742.05;2134300;81;28250;-61
2021/10/08 04:29:16;;;;;;;36.38;15.45;;;;;;;5.76;74.55;101746.50;2078727;83;29436;-62
2021/10/08 04:32:22;;;;;;;30.17;14.33;;;;;;;5.76;74.49;101750.49;2083464;83;31258;-62
2021/10/08 04:35:24;;;;;;;35.35;17.60;;;;;;;5.76;74.54;101754.48;2069892;84;33625;-61
2021/10/08 04:38:28;;;;;;;45.48;17.35;;;;;;;5.71;74.50;101753.16;2133552;81;29825;-61
2021/10/08 04:41:30;;;;;;;41.50;16.45;;;;;;;5.70;74.53;101759.39;2045884;84;27794;-61
2021/10/08 04:44:33;;;;;;;30.05;16.23;;;;;;;5.69;74.53;101760.72;2076960;84;27809;-62
2021/10/08 04:47:36;;;;;;;37.38;16.85;;;;;;;5.65;74.52;101763.84;2154843;81;32648;-63
2021/10/08 04:50:41;;;;;;;32.23;16.35;;;;;;;5.60;74.52;101765.20;2129031;81;32881;-63
2021/10/08 04:53:44;;;;;;;29.95;13.98;;;;;;;5.58;74.57;101768.74;2107227;82;29381;-64
2021/10/08 04:56:50;;;;;;;34.23;14.03;;;;;;;5.58;74.58;101770.97;2073282;84;27739;-65
2021/10/08 04:59:54;;;;;;;30.05;14.35;;;;;;;5.58;74.56;101773.63;2082885;84;28094;-63
2021/10/08 05:03:00;;;;;;;33.02;16.27;;;;;;;5.58;74.52;101774.95;2011696;86;31487;-64
2021/10/08 05:06:03;;;;;;;36.77;17.35;;;;;;;5.58;74.54;101772.73;2070475;85;33026;-65
2021/10/08 05:09:06;;;;;;;37.08;17.00;;;;;;;5.58;74.52;101772.73;2068721;83;29388;-64
2021/10/08 05:12:08;;;;;;;37.48;16.32;;;;;;;5.57;74.51;101775.84;2059520;84;27821;-66
2021/10/08 05:15:13;;;;;;;32.28;16.07;;;;;;;5.58;74.52;101774.95;2095066;82;29082;-66
2021/10/08 05:18:15;;;;;;;35.90;16.75;;;;;;;5.58;74.55;101772.73;2109900;82;31047;-65
2021/10/08 05:21:21;;;;;;;31.95;16.00;;;;;;;5.55;74.53;101767.00;2090723;82;33513;-64
2021/10/08 05:24:25;;;;;;;38.88;17.73;;;;;;;5.51;74.51;101769.22;2128497;80;30122;-64
2021/10/08 05:27:29;;;;;;;34.63;15.98;;;;;;;5.47;74.57;101765.70;2153492;81;27687;-65
2021/10/08 05:30:32;;;;;;;29.05;15.25;;;;;;;5.46;74.63;101772.37;2108892;82;29712;-64
2021/10/08 05:33:38;;;;;;;32.05;15.53;;;;;;;5.49;74.73;101772.33;2113577;82;31101;-62
2021/10/08 05:36:48;;;;;;;33.48;14.87;;;;;;;5.50;74.72;101771.44;2114600;82;33014;-64
2021/10/08 05:39:48;;;;;;;36.58;18.10;;;;;;;5.56;74.78;101783.38;2149469;81;30194;-64
2021/10/08 05:42:50;;;;;;;40.73;18.62;;;;;;;5.59;74.78;101790.02;2120689;80;27737;-65
2021/10/08 05:45:55;;;;;;;33.80;17.90;;;;;;;5.59;74.70;101783.38;2134223;82;28627;-64
2021/10/08 05:49:01;;;;;;;32.67;16.87;;;;;;;5.61;74.67;101786.91;2074026;83;32318;-65
2021/10/08 05:52:07;;;;;;;32.10;16.25;;;;;;;5.66;74.66;101789.55;2096604;82;33010;-64
2021/10/08 05:55:10;;;;;;;31.17;15.88;;;;;;;5.70;74.68;101797.05;2118640;82;30189;-63
2021/10/08 05:58:12;;;;;;;34.23;16.82;;;;;;;5.73;74.59;101803.69;2124154;83;28466;-64
2021/10/08 06:01:15;;;;;;;34.48;15.65;;;;;;;5.78;74.62;101803.23;2079706;82;28759;-65
2021/10/08 06:04:18;;;;;;;34.10;15.90;;;;;;;5.84;74.69;101805.83;2130677;82;31037;-65
2021/10/08 06:07:25;;;;;;;34.60;15.50;;;;;;;5.96;74.60;101808.00;2126050;82;32980;-61
2021/10/08 06:10:30;;;;;;;32.70;15.78;;;;;;;6.12;74.53;101812.80;2111149;81;29773;-60
2021/10/08 06:13:35;;;;;;;31.55;15.85;;;;;;;6.29;74.17;101816.23;2152805;81;28484;-61
2021/10/08 06:16:38;;;;;;;34.45;16.90;;;;;;;6.46;73.96;101819.20;2151439;81;28238;-62
2021/10/08 06:19:41;;;;;;;32.78;16.95;;;;;;;6.65;73.80;101815.94;2122248;81;31693;-61
2021/10/08 06:22:46;;;;;;;50.23;18.17;;;;;;;6.82;73.48;101815.80;2146845;81;33769;-62
2021/10/08 06:25:53;;;;;;;41.68;17.37;;;;;;;6.96;73.17;101810.31;2138377;82;29390;-60
2021/10/08 06:28:59;;;;;;;52.08;27.22;;;;;;;7.09;72.77;101814.64;2125723;81;27796;-61
2021/10/08 06:32:07;;;;;;;32.42;17.00;;;;;;;7.20;72.72;101814.50;2133628;81;28763;-62
2021/10/08 06:35:12;;;;;;;37.58;17.05;;;;;;;7.36;72.61;101815.22;2146325;80;31776;-62
2021/10/08 06:38:18;;;;;;;35.43;17.57;;;;;;;7.59;72.50;101820.73;2148121;80;32492;-62
2021/10/08 06:41:20;;;;;;;35.85;16.80;;;;;;;7.79;71.16;101825.80;2142219;80;29043;-62
2021/10/08 06:44:25;;;;;;;35.65;15.43;;;;;;;7.98;71.37;101827.75;2114823;83;28184;-62
2021/10/08 06:47:32;;;;;;;41.08;17.30;;;;;;;8.31;70.96;101829.49;2129188;81;28706;-62
2021/10/08 06:50:35;;;;;;;34.65;16.07;;;;;;;8.66;70.29;101827.21;2103112;82;31907;-62
2021/10/08 06:53:39;;;;;;;31.75;16.15;;;;;;;9.00;70.36;101834.63;2160413;81;32917;-61
2021/10/08 06:56:44;;;;;;;35.68;15.98;;;;;;;9.36;68.61;101843.31;2152917;81;29374;-62
2021/10/08 06:59:49;;;;;;;29.20;15.23;;;;;;;9.70;69.41;101833.27;2149248;81;27999;-62
2021/10/08 07:02:59;;;;;;;38.35;16.27;;;;;;;10.12;67.31;101837.70;2108833;83;28690;-61
2021/10/08 07:06:05;;;;;;;43.65;15.50;;;;;;;10.46;67.50;101839.63;2101032;82;31692;-62
2021/10/08 07:09:06;;;;;;;36.08;14.83;;;;;;;10.82;66.93;101842.74;2057918;85;33007;-61
2021/10/08 07:12:12;;;;;;;33.75;14.70;;;;;;;11.12;64.86;101838.38;2161624;81;29359;-61
2021/10/08 07:15:20;;;;;;;41.05;15.75;;;;;;;11.35;65.61;101845.80;2164874;81;27663;-61
2021/10/08 07:18:33;;;;;;;29.87;14.40;;;;;;;11.65;64.11;101849.86;2162159;81;28628;-61
2021/10/08 07:21:31;;;;;;;32.08;14.78;;;;;;;11.88;64.08;101856.81;2144865;81;31792;-62
2021/10/08 07:24:36;;;;;;;;;;;;;;;12.12;63.22;101861.48;2096379;82;33742;-62
2021/10/08 07:27:43;;;;;;;29.23;14.65;;;;;;;12.23;61.47;101867.87;2037092;85;29427;-62
2021/10/08 07:30:46;;;;;;;27.10;13.20;;;;;;;12.38;62.98;101866.97;2077556;83;27735;-62
2021/10/08 07:33:53;;;;;;;29.77;13.35;;;;;;;12.71;62.31;101872.17;2041157;84;29140;-63
2021/10/08 07:36:57;;;;;;;28.12;13.85;;;;;;;12.92;60.21;101868.73;2020999;85;31938;-62
2021/10/08 07:40:00;;;;;;;26.73;14.05;;;;;;;13.14;60.67;101872.03;2092687;82;32985;-63
2021/10/08 07:43:06;;;;;;;31.17;14.07;;;;;;;13.30;57.52;101870.14;2137900;81;29407;-64
2021/10/08 07:46:11;;;;;;;29.18;12.85;;;;;;;13.30;58.75;101872.84;2106576;82;27536;-62
2021/10/08 07:49:14;;;;;;;27.60;13.62;;;;;;;13.36;57.18;101873.97;2142943;81;28675;-62
2021/10/08 07:52:18;;;;;;;30.37;13.55;;;;;;;13.41;57.75;101879.22;2135085;81;31069;-62
2021/10/08 07:55:23;;;;;;;27.22;14.55;;;;;;;13.63;57.26;101882.00;2128638;82;32958;-62
2021/10/08 07:58:27;;;;;;;24.10;12.60;;;;;;;13.73;56.26;101879.39;2129338;81;29363;-61
2021/10/08 08:01:32;;;;;;;22.05;12.33;;;;;;;13.64;55.50;101877.92;2140264;81;27797;-62
2021/10/08 08:04:39;;;;;;;26.30;13.62;;;;;;;13.49;54.09;101878.00;2151068;81;28661;-63
2021/10/08 08:07:43;;;;;;;28.75;13.98;;;;;;;13.34;54.36;101880.73;2156788;81;31046;-64
2021/10/08 08:10:49;;;;;;;28.23;13.38;;;;;;;13.12;56.11;101877.94;2077936;83;33054;-62
2021/10/08 08:13:55;;;;;;;30.48;14.43;;;;;;;13.07;55.21;101872.72;2073022;84;29404;-63
2021/10/08 08:17:01;;;;;;;30.65;12.75;;;;;;;12.84;55.79;101876.20;2136859;81;27752;-62
2021/10/08 08:20:09;;;;;;;34.95;14.05;;;;;;;12.60;55.02;101873.87;2100681;83;28775;-62
2021/10/08 08:23:15;;;;;;;30.12;12.63;;;;;;;12.37;54.84;101881.33;2115509;83;31850;-62
2021/10/08 08:26:21;;;;;;;29.02;14.33;;;;;;;12.15;55.30;101884.23;2115084;82;32983;-61
2021/10/08 08:29:25;;;;;;;31.42;14.60;;;;;;;12.05;55.73;101888.59;2119693;81;29353;-62
2021/10/08 08:32:32;;;;;;;29.70;14.73;;;;;;;11.93;55.50;101881.73;2134515;81;27739;-61
2021/10/08 08:35:37;;;;;;;32.65;13.58;;;;;;;11.81;55.91;101881.19;2123824;81;28681;-61
2021/10/08 08:38:41;;;;;;;32.35;13.13;;;;;;;11.75;55.88;101880.48;2157854;81;31021;-62
2021/10/08 08:41:44;;;;;;;30.02;14.10;;;;;;;11.69;56.00;101878.39;2137564;81;33013;-62
2021/10/08 08:44:51;;;;;;;31.80;14.63;;;;;;;11.61;55.93;101880.87;2153275;81;29370;-60
2021/10/08 08:48:08;;;;;;;30.75;14.47;;;;;;;11.59;55.53;101884.05;2107416;83;27916;-64
2021/10/08 08:51:10;;;;;;;24.85;12.93;;;;;;;11.54;55.87;101877.01;2099794;83;29801;-63
2021/10/08 08:54:13;;;;;;;24.72;13.43;;;;;;;11.48;55.70;101880.33;2100845;83;31124;-63
2021/10/08 08:57:19;;;;;;;32.80;14.18;;;;;;;11.48;56.13;101878.55;2086778;83;32964;-63
2021/10/08 09:00:22;;;;;;;33.35;13.95;;;;;;;11.44;56.41;101878.20;2085585;83;30205;-63
2021/10/08 09:03:28;;;;;;;34.83;15.43;;;;;;;11.38;55.30;101882.38;2082084;84;27797;-64
2021/10/08 09:06:36;;;;;;;28.32;13.72;;;;;;;11.21;55.42;101881.52;2050013;85;29623;-62
2021/10/08 09:09:42;;;;;;;40.45;19.42;;;;;;;11.15;56.05;101882.56;2074076;84;31042;-62
2021/10/08 09:12:48;;;;;;;27.05;14.65;;;;;;;11.09;56.36;101887.60;2083868;83;33791;-63
2021/10/08 09:15:55;;;;;;;27.20;14.25;;;;;;;11.05;56.42;101879.24;2070766;83;30186;-62
2021/10/08 09:19:00;;;;;;;36.45;16.17;;;;;;;11.02;56.52;101878.42;2144931;82;27622;-63
2021/10/08 09:22:07;;;;;;;32.45;14.23;;;;;;;10.99;56.27;101879.39;2128638;82;28665;-63
2021/10/08 09:25:16;;;;;;;32.38;14.70;;;;;;;11.03;56.28;101880.18;2133662;81;31194;-63
2021/10/08 09:28:18;;;;;;;28.30;14.20;;;;;;;11.01;56.72;101881.58;2146433;81;33863;-63
2021/10/08 09:31:29;;;;;;;31.60;13.65;;;;;;;10.92;56.13;101880.48;2157452;81;29982;-63
2021/10/08 09:34:34;;;;;;;29.67;13.20;;;;;;;10.92;56.83;101879.14;2151079;81;27771;-63
2021/10/08 09:37:42;;;;;;;23.05;13.53;;;;;;;10.97;56.93;101876.34;2144771;81;28166;-62
2021/10/08 09:40:52;;;;;;;29.27;16.60;;;;;;;11.00;56.01;101884.31;2121313;82;31053;-63
2021/10/08 09:43:54;;;;;;;44.38;16.93;;;;;;;10.96;56.33;101885.30;2076820;83;33203;-62
2021/10/08 09:47:22;;;;;;;29.32;14.63;;;;;;;10.98;56.98;101889.69;2127611;82;29374;-63
2021/10/08 09:50:28;;;;;;;30.68;14.03;;;;;;;10.98;56.05;101886.15;2141285;81;27659;-63
2021/10/08 09:53:34;;;;;;;31.15;13.28;;;;;;;10.97;56.77;101885.25;2153472;81;29462;-63
2021/10/08 09:56:41;;;;;;;27.75;13.80;;;;;;;10.95;56.75;101879.04;2150619;81;32231;-61
2021/10/08 09:59:46;;;;;;;28.20;13.65;;;;;;;10.99;56.66;101871.34;2113995;83;33126;-62
2021/10/08 10:03:00;;;;;;;;;;;;;;;10.99;56.29;101875.84;2073592;84;30192;-61
2021/10/08 10:06:07;;;;;;;26.87;13.00;;;;;;;11.05;56.58;101874.32;2051438;85;27738;-61
2021/10/08 10:09:13;;;;;;;25.72;12.93;;;;;;;11.09;56.68;101880.03;2014154;86;28722;-66
2021/10/08 10:12:18;;;;;;;28.12;12.30;;;;;;;11.15;56.42;101878.98;2066794;84;31052;-61
2021/10/08 10:15:23;;;;;;;25.43;13.85;;;;;;;11.18;56.39;101874.41;2054410;85;33023;-66
2021/10/08 10:21:37;;;;;;;28.12;12.90;;;;;;;11.16;56.39;101878.97;1929359;90;27840;-62
2021/10/08 10:24:44;;;;;;;28.23;12.63;;;;;;;11.18;56.98;101879.77;1934897;89;28690;-62
2021/10/08 10:27:50;;;;;;;30.10;12.47;;;;;;;11.25;56.43;101884.06;1943516;89;31089;-62
2021/10/08 10:30:55;;;;;;;29.10;12.95;;;;;;;11.24;56.43;101875.59;1982585;88;33686;-61
2021/10/08 10:34:02;;;;;;;28.10;13.35;;;;;;;11.24;56.88;101870.23;1995495;86;29390;-62
2021/10/08 10:37:08;;;;;;;29.52;13.83;;;;;;;11.31;56.83;101872.28;1984796;87;27802;-62
2021/10/08 10:40:22;;;;;;;30.55;13.20;;;;;;;11.33;56.69;101871.78;1972114;89;28702;-62
2021/10/08 10:43:34;;;;;;;20.75;12.50;;;;;;;11.35;56.69;101883.36;1941312;90;31133;-61
2021/10/08 10:46:56;;;;;;;33.92;13.75;;;;;;;11.35;56.39;101887.38;1958151;89;33147;-63
2021/10/08 10:50:28;;;;;;;27.82;13.08;;;;;;;11.38;57.02;101880.59;1953003;89;29774;-63
2021/10/08 10:53:54;;;;;;;32.25;13.40;;;;;;;11.43;56.81;101880.91;1999670;86;28019;-62
2021/10/08 10:56:57;;;;;;;33.83;14.45;;;;;;;11.43;57.05;101882.25;1977997;87;28699;-61
2021/10/08 11:00:41;;;;;;;25.02;13.00;;;;;;;11.43;57.04;101873.75;1983701;88;31281;-60
2021/10/08 11:03:45;;;;;;;28.07;13.50;;;;;;;11.50;56.96;101881.17;1996518;86;33346;-62
2021/10/08 11:07:16;;;;;;;24.77;13.08;;;;;;;11.51;57.12;101886.48;1962290;88;29365;-62
2021/10/08 11:10:21;;;;;;;35.08;13.32;;;;;;;11.55;56.92;101888.64;1927253;90;27928;-62
2021/10/08 11:13:37;;;;;;;29.32;12.65;;;;;;;11.62;57.33;101877.27;1939365;90;29384;-63
2021/10/08 11:16:42;;;;;;;28.90;12.93;;;;;;;11.67;57.13;101880.67;1924966;89;31894;-62
2021/10/08 11:19:47;;;;;;;29.65;13.15;;;;;;;11.68;57.03;101872.59;1925129;91;33021;-63
2021/10/08 11:22:50;;;;;;;32.25;14.78;;;;;;;11.72;57.18;101884.59;1946721;89;29348;-60
2021/10/08 11:25:56;;;;;;;28.75;13.65;;;;;;;11.72;57.23;101880.09;2020746;86;28245;-61
2021/10/08 11:29:00;;;;;;;31.10;15.00;;;;;;;11.76;57.32;101876.40;2041736;86;28758;-61
2021/10/08 11:32:11;;;;;;;31.35;13.40;;;;;;;11.79;57.44;101876.77;2093437;83;31868;-62
2021/10/08 11:35:18;;;;;;;26.95;14.30;;;;;;;11.80;57.25;101878.52;2089327;83;34000;-62
2021/10/08 11:38:19;;;;;;;30.15;13.35;;;;;;;11.85;57.42;101878.80;2091349;83;29352;-61
2021/10/08 11:41:25;;;;;;;32.20;13.55;;;;;;;11.87;57.17;101870.72;2114531;82;27658;-62
2021/10/08 11:44:32;;;;;;;27.20;12.90;;;;;;;11.89;57.48;101871.56;2067447;85;29565;-61
2021/10/08 11:51:01;;;;;;;26.65;14.00;;;;;;;11.92;57.11;101862.04;2126466;82;33156;-61
2021/10/08 11:53:59;;;;;;;31.17;12.13;;;;;;;11.95;57.20;101855.72;2108336;82;30834;-61
2021/10/08 11:57:05;;;;;;;31.10;14.35;;;;;;;11.99;57.49;101862.31;2067316;82;27744;-61
2021/10/08 12:00:11;;;;;;;31.68;13.58;;;;;;;12.00;57.15;101856.02;2099505;82;28706;-61
2021/10/08 12:03:19;;;;;;;28.05;12.82;;;;;;;12.03;57.28;101860.89;2115885;82;31087;-61
2021/10/08 12:06:21;;;;;;;29.12;13.20;;;;;;;12.04;57.43;101856.80;2142436;81;33005;-61
2021/10/08 12:09:26;;;;;;;30.88;12.68;;;;;;;12.08;57.56;101853.58;2142677;81;30045;-62
2021/10/08 12:12:30;;;;;;;27.05;12.60;;;;;;;12.13;57.53;101859.22;2054278;84;27840;-61
2021/10/08 12:15:35;;;;;;;49.53;14.23;;;;;;;12.17;57.19;101849.25;2028383;84;28720;-63
2021/10/08 12:18:53;;;;;;;30.95;17.77;;;;;;;12.19;57.32;101852.77;2170938;81;31052;-63
2021/10/08 12:21:58;;;;;;;26.65;11.68;;;;;;;12.24;57.54;101848.14;2165139;80;33016;-62
2021/10/08 12:25:07;;;;;;;24.60;12.53;;;;;;;12.31;57.19;101855.05;2165137;80;29352;-62
2021/10/08 12:28:19;;;;;;;29.52;12.95;;;;;;;12.37;56.94;101849.95;2172247;81;27648;-62
2021/10/08 12:31:45;;;;;;;29.98;14.15;;;;;;;12.38;56.88;101858.42;2170797;81;28787;-62
2021/10/08 12:34:52;;;;;;;24.80;11.90;;;;;;;12.39;56.91;101852.60;2167873;80;31092;-61
2021/10/08 12:38:01;;;;;;;28.65;11.50;;;;;;;12.41;56.58;101856.98;2151129;81;33599;-62
2021/10/08 12:41:09;;;;;;;25.55;12.45;;;;;;;12.44;56.21;101860.92;2149449;81;29332;-61
2021/10/08 12:44:18;;;;;;;23.92;12.18;;;;;;;12.51;56.58;101854.88;2143138;82;27889;-61
2021/10/08 12:47:25;;;;;;;23.77;12.05;;;;;;;12.58;56.18;101856.91;2150921;82;29395;-61
2021/10/08 12:50:33;;;;;;;29.52;11.90;;;;;;;12.61;55.41;101858.16;2158701;81;31068;-62
2021/10/08 12:53:38;;;;;;;35.45;12.47;;;;;;;12.65;55.65;101854.44;2113133;81;33299;-61
2021/10/08 12:56:40;;;;;;;21.00;10.55;;;;;;;12.65;55.16;101862.51;2136740;82;29384;-62
2021/10/08 12:59:56;;;;;;;19.77;9.83;;;;;;;12.69;55.06;101848.48;2145465;81;28388;-64
2021/10/08 13:03:02;;;;;;;24.57;9.78;;;;;;;12.75;54.35;101849.16;2146992;81;28672;-62
2021/10/08 13:06:13;;;;;;;21.15;10.08;;;;;;;12.81;55.10;101852.09;2142693;81;31860;-62
2021/10/08 13:09:17;;;;;;;18.30;10.08;;;;;;;12.85;54.89;101848.83;2141685;81;32920;-60
2021/10/08 13:12:20;;;;;;;24.95;10.23;;;;;;;12.90;54.71;101846.42;2145228;81;29373;-62
2021/10/08 13:15:28;;;;;;;23.52;9.65;;;;;;;12.92;53.83;101844.53;2184528;81;28344;-61
2021/10/08 13:18:43;;;;;;;23.52;9.68;;;;;;;12.96;53.78;101845.77;2168522;80;29506;-61
2021/10/08 13:21:44;;;;;;;;;;;;;;;12.97;52.65;101853.80;2156033;80;31066;-62
2021/10/08 13:24:50;;;;;;;20.10;7.55;;;;;;;13.01;53.05;101843.81;2138944;81;33958;-61
2021/10/08 13:27:55;;;;;;;23.32;9.55;;;;;;;13.03;53.01;101841.47;2128824;82;30479;-61
2021/10/08 13:31:00;;;;;;;;;;;;;;;13.05;52.72;101836.91;2132343;82;27764;-62
2021/10/08 13:34:04;;;;;;;22.60;8.57;;;;;;;13.07;52.49;101834.19;2138612;81;28701;-62
2021/10/08 13:37:10;;;;;;;13.93;6.20;;;;;;;13.05;52.27;101835.56;2130505;81;31045;-62
2021/10/08 13:40:16;;;;;;;16.95;8.60;;;;;;;13.06;52.27;101839.16;2104548;81;33010;-61
2021/10/08 13:43:20;;;;;;;25.30;8.85;;;;;;;13.09;52.15;101829.60;2168883;81;29964;-61
2021/10/08 13:46:23;;;;;;;23.25;8.63;;;;;;;13.09;51.32;101834.98;2163441;81;27846;-61
2021/10/08 13:49:26;;;;;;;19.82;8.28;;;;;;;13.12;51.91;101820.56;2160240;81;28709;-62
2021/10/08 13:52:32;;;;;;;19.20;9.23;;;;;;;13.14;51.46;101828.98;2157454;81;31080;-63
2021/10/08 13:55:37;;;;;;;18.80;8.03;;;;;;;13.15;51.91;101823.16;2141619;81;33785;-64
2021/10/08 13:58:43;;;;;;;17.23;8.15;;;;;;;13.14;51.67;101815.53;2135346;81;29439;-62
2021/10/08 14:01:55;;;;;;;21.95;9.80;;;;;;;13.15;51.51;101822.67;2135424;82;27756;-63
2021/10/08 14:05:01;;;;;;;15.20;8.20;;;;;;;13.15;51.00;101815.94;2126974;81;29373;-63
2021/10/08 14:11:10;;;;;;;21.57;7.83;;;;;;;13.18;51.47;101811.80;2104289;82;33080;-60
2021/10/08 14:14:11;;;;;;;23.47;8.25;;;;;;;13.21;51.74;101813.49;2076109;83;29333;-60
2021/10/08 14:17:17;;;;;;;21.62;8.30;;;;;;;13.22;51.00;101811.22;2112079;82;27860;-61
2021/10/08 14:20:23;;;;;;;21.00;8.05;;;;;;;13.22;50.99;101818.84;2113281;82;28722;-61